sensor_id;sensor_type;location;lat;lon;timestamp;temperature;humidity
18882;DHT22;9573;50.948;11.600;2024-02-23T00:01:19;11.90;99.90
18882;DHT22;9573;50.948;11.600;2024-02-23T00:03:48;12.00;99.90
18882;DHT22;9573;50.948;11.600;2024-02-23T00:06:15;11.90;99.90
18882;DHT22;9573;50.948;11.600;2024-02-23T00:08:42;11.90;99.90
18882;DHT22;9573;50.948;11.600;2024-02-23T00:11:09;11.80;99.90
18882;DHT22;9573;50.948;11.600;2024-02-23T00:13:36;11.80;99.90
18882;DHT22;9573;50.948;11.600;2024-02-23T00:16:04;11.70;99.90
18882;DHT22;9573;50.948;11.600;2024-02-23T00:18:31;11.70;99.90
18882;DHT22;9573;50.948;11.600;2024-02-23T00:20:59;11.70;99.90
18882;DHT22;9573;50.948;11.600;2024-02-23T00:23:26;11.60;99.90
18882;DHT22;9573;50.948;11.600;2024-02-23T00:25:54;11.60;99.90
18882;DHT22;9573;50.948;11.600;2024-02-23T00:28:21;11.60;99.90
18882;DHT22;9573;50.948;11.600;2024-02-23T00:30:48;11.60;99.90
18882;DHT22;9573;50.948;11.600;2024-02-23T00:33:15;11.60;99.90
18882;DHT22;9573;50.948;11.600;2024-02-23T00:35:42;11.60;99.90
18882;DHT22;9573;50.948;11.600;2024-02-23T00:38:11;11.50;99.90
18882;DHT22;9573;50.948;11.600;2024-02-23T00:40:38;11.50;99.90
18882;DHT22;9573;50.948;11.600;2024-02-23T00:43:05;11.50;99.90
18882;DHT22;9573;50.948;11.600;2024-02-23T00:45:32;11.40;99.90
18882;DHT22;9573;50.948;11.600;2024-02-23T00:47:59;11.40;99.90
18882;DHT22;9573;50.948;11.600;2024-02-23T00:50:26;11.40;99.90
18882;DHT22;9573;50.948;11.600;2024-02-23T00:52:53;11.30;99.90
18882;DHT22;9573;50.948;11.600;2024-02-23T00:55:21;11.10;99.90
18882;DHT22;9573;50.948;11.600;2024-02-23T00:57:50;11.20;99.90
18882;DHT22;9573;50.948;11.600;2024-02-23T01:00:18;11.20;99.90
18882;DHT22;9573;50.948;11.600;2024-02-23T01:02:45;11.20;99.90
18882;DHT22;9573;50.948;11.600;2024-02-23T01:05:12;11.20;99.90
18882;DHT22;9573;50.948;11.600;2024-02-23T01:07:39;11.10;99.90
18882;DHT22;9573;50.948;11.600;2024-02-23T01:10:07;11.00;99.90
18882;DHT22;9573;50.948;11.600;2024-02-23T01:12:36;10.90;99.90
18882;DHT22;9573;50.948;11.600;2024-02-23T01:15:04;10.80;99.90
18882;DHT22;9573;50.948;11.600;2024-02-23T01:17:31;10.80;99.90
18882;DHT22;9573;50.948;11.600;2024-02-23T01:19:59;10.70;99.90
18882;DHT22;9573;50.948;11.600;2024-02-23T01:22:26;10.60;99.90
18882;DHT22;9573;50.948;11.600;2024-02-23T01:24:53;10.50;99.90
18882;DHT22;9573;50.948;11.600;2024-02-23T01:27:20;10.40;99.90
18882;DHT22;9573;50.948;11.600;2024-02-23T01:29:49;10.30;99.90
18882;DHT22;9573;50.948;11.600;2024-02-23T01:32:16;10.30;99.90
18882;DHT22;9573;50.948;11.600;2024-02-23T01:34:43;10.20;99.90
18882;DHT22;9573;50.948;11.600;2024-02-23T01:37:10;10.10;99.90
18882;DHT22;9573;50.948;11.600;2024-02-23T01:39:37;10.10;99.90
18882;DHT22;9573;50.948;11.600;2024-02-23T01:42:04;10.10;99.90
18882;DHT22;9573;50.948;11.600;2024-02-23T01:44:31;10.10;99.90
18882;DHT22;9573;50.948;11.600;2024-02-23T01:47:00;10.00;99.90
18882;DHT22;9573;50.948;11.600;2024-02-23T01:49:27;9.90;99.90
18882;DHT22;9573;50.948;11.600;2024-02-23T01:51:57;9.80;99.90
18882;DHT22;9573;50.948;11.600;2024-02-23T01:54:24;9.70;99.90
18882;DHT22;9573;50.948;11.600;2024-02-23T01:56:53;9.70;99.90
18882;DHT22;9573;50.948;11.600;2024-02-23T01:59:21;9.70;99.90
18882;DHT22;9573;50.948;11.600;2024-02-23T02:01:49;9.60;99.90
18882;DHT22;9573;50.948;11.600;2024-02-23T02:04:17;9.50;99.90
18882;DHT22;9573;50.948;11.600;2024-02-23T02:06:45;9.50;99.90
18882;DHT22;9573;50.948;11.600;2024-02-23T02:09:13;9.30;99.90
18882;DHT22;9573;50.948;11.600;2024-02-23T02:11:45;9.30;99.90
18882;DHT22;9573;50.948;11.600;2024-02-23T02:14:13;9.20;99.90
18882;DHT22;9573;50.948;11.600;2024-02-23T02:16:40;9.10;99.90
18882;DHT22;9573;50.948;11.600;2024-02-23T02:19:07;9.10;99.90
18882;DHT22;9573;50.948;11.600;2024-02-23T02:21:36;9.20;99.90
18882;DHT22;9573;50.948;11.600;2024-02-23T02:24:04;9.20;99.90
18882;DHT22;9573;50.948;11.600;2024-02-23T02:26:31;9.20;99.90
18882;DHT22;9573;50.948;11.600;2024-02-23T02:28:58;9.10;99.90
18882;DHT22;9573;50.948;11.600;2024-02-23T02:31:26;9.10;99.90
18882;DHT22;9573;50.948;11.600;2024-02-23T02:33:53;9.10;99.90
18882;DHT22;9573;50.948;11.600;2024-02-23T02:36:20;9.00;99.90
18882;DHT22;9573;50.948;11.600;2024-02-23T02:38:48;9.00;99.90
18882;DHT22;9573;50.948;11.600;2024-02-23T02:41:17;8.90;99.90
18882;DHT22;9573;50.948;11.600;2024-02-23T02:43:44;8.90;99.90
18882;DHT22;9573;50.948;11.600;2024-02-23T02:46:12;8.80;99.90
18882;DHT22;9573;50.948;11.600;2024-02-23T02:48:40;8.70;99.90
18882;DHT22;9573;50.948;11.600;2024-02-23T02:51:07;8.60;99.90
18882;DHT22;9573;50.948;11.600;2024-02-23T02:53:34;8.40;99.90
18882;DHT22;9573;50.948;11.600;2024-02-23T02:56:05;8.50;99.90
18882;DHT22;9573;50.948;11.600;2024-02-23T02:58:33;8.50;99.90
18882;DHT22;9573;50.948;11.600;2024-02-23T03:01:00;8.50;99.90
18882;DHT22;9573;50.948;11.600;2024-02-23T03:03:27;8.50;99.90
18882;DHT22;9573;50.948;11.600;2024-02-23T03:05:54;8.40;99.90
18882;DHT22;9573;50.948;11.600;2024-02-23T03:08:21;8.30;99.90
18882;DHT22;9573;50.948;11.600;2024-02-23T03:10:48;8.30;99.90
18882;DHT22;9573;50.948;11.600;2024-02-23T03:13:16;8.10;99.90
18882;DHT22;9573;50.948;11.600;2024-02-23T03:15:43;8.10;99.90
18882;DHT22;9573;50.948;11.600;2024-02-23T03:18:10;8.00;99.90
18882;DHT22;9573;50.948;11.600;2024-02-23T03:20:38;8.00;99.90
18882;DHT22;9573;50.948;11.600;2024-02-23T03:23:05;8.00;99.90
18882;DHT22;9573;50.948;11.600;2024-02-23T03:25:32;7.90;99.90
18882;DHT22;9573;50.948;11.600;2024-02-23T03:27:59;7.90;99.90
18882;DHT22;9573;50.948;11.600;2024-02-23T03:30:28;7.80;99.90
18882;DHT22;9573;50.948;11.600;2024-02-23T03:32:55;7.80;99.90
18882;DHT22;9573;50.948;11.600;2024-02-23T03:35:22;7.80;99.90
18882;DHT22;9573;50.948;11.600;2024-02-23T03:37:49;7.70;99.90
18882;DHT22;9573;50.948;11.600;2024-02-23T03:40:16;7.70;99.90
18882;DHT22;9573;50.948;11.600;2024-02-23T03:42:44;7.70;99.90
18882;DHT22;9573;50.948;11.600;2024-02-23T03:45:11;7.80;99.90
18882;DHT22;9573;50.948;11.600;2024-02-23T03:47:40;7.80;99.90
18882;DHT22;9573;50.948;11.600;2024-02-23T03:50:07;7.80;99.90
18882;DHT22;9573;50.948;11.600;2024-02-23T03:52:35;7.80;99.90
18882;DHT22;9573;50.948;11.600;2024-02-23T03:55:03;7.80;99.90
18882;DHT22;9573;50.948;11.600;2024-02-23T03:57:31;7.80;99.90
18882;DHT22;9573;50.948;11.600;2024-02-23T03:59:58;7.80;99.90
18882;DHT22;9573;50.948;11.600;2024-02-23T04:02:25;7.80;99.90
18882;DHT22;9573;50.948;11.600;2024-02-23T04:04:54;7.70;99.90
18882;DHT22;9573;50.948;11.600;2024-02-23T04:07:21;7.60;99.90
18882;DHT22;9573;50.948;11.600;2024-02-23T04:09:49;7.70;99.90
18882;DHT22;9573;50.948;11.600;2024-02-23T04:12:18;7.60;99.90
18882;DHT22;9573;50.948;11.600;2024-02-23T04:14:45;7.50;99.90
18882;DHT22;9573;50.948;11.600;2024-02-23T04:17:12;7.40;99.90
18882;DHT22;9573;50.948;11.600;2024-02-23T04:19:40;7.40;99.90
18882;DHT22;9573;50.948;11.600;2024-02-23T04:22:09;7.40;99.90
18882;DHT22;9573;50.948;11.600;2024-02-23T04:24:38;7.40;99.90
18882;DHT22;9573;50.948;11.600;2024-02-23T04:27:06;7.40;99.90
18882;DHT22;9573;50.948;11.600;2024-02-23T04:29:34;7.40;99.90
18882;DHT22;9573;50.948;11.600;2024-02-23T04:32:01;7.40;99.90
18882;DHT22;9573;50.948;11.600;2024-02-23T04:34:29;7.40;99.90
18882;DHT22;9573;50.948;11.600;2024-02-23T04:36:56;7.30;99.90
18882;DHT22;9573;50.948;11.600;2024-02-23T04:39:24;7.30;99.90
18882;DHT22;9573;50.948;11.600;2024-02-23T04:41:51;7.30;99.90
18882;DHT22;9573;50.948;11.600;2024-02-23T04:44:19;7.30;99.90
18882;DHT22;9573;50.948;11.600;2024-02-23T04:46:46;7.30;99.90
18882;DHT22;9573;50.948;11.600;2024-02-23T04:49:14;7.20;99.90
18882;DHT22;9573;50.948;11.600;2024-02-23T04:51:41;7.20;99.90
18882;DHT22;9573;50.948;11.600;2024-02-23T04:54:09;7.20;99.90
18882;DHT22;9573;50.948;11.600;2024-02-23T04:56:38;7.20;99.90
18882;DHT22;9573;50.948;11.600;2024-02-23T04:59:05;7.20;99.90
18882;DHT22;9573;50.948;11.600;2024-02-23T05:01:35;7.20;99.90
18882;DHT22;9573;50.948;11.600;2024-02-23T05:04:03;7.30;99.90
18882;DHT22;9573;50.948;11.600;2024-02-23T05:06:31;7.30;99.90
18882;DHT22;9573;50.948;11.600;2024-02-23T05:08:58;7.20;99.90
18882;DHT22;9573;50.948;11.600;2024-02-23T05:11:25;7.20;99.90
18882;DHT22;9573;50.948;11.600;2024-02-23T05:13:53;7.20;99.90
18882;DHT22;9573;50.948;11.600;2024-02-23T05:16:20;7.10;99.90
18882;DHT22;9573;50.948;11.600;2024-02-23T05:18:47;9.40;99.90
18882;DHT22;9573;50.948;11.600;2024-02-23T05:21:15;7.10;99.90
18882;DHT22;9573;50.948;11.600;2024-02-23T05:23:42;7.00;99.90
18882;DHT22;9573;50.948;11.600;2024-02-23T05:26:11;7.00;99.90
18882;DHT22;9573;50.948;11.600;2024-02-23T05:28:38;7.00;99.90
18882;DHT22;9573;50.948;11.600;2024-02-23T05:31:08;6.90;99.90
18882;DHT22;9573;50.948;11.600;2024-02-23T05:33:36;6.90;99.90
18882;DHT22;9573;50.948;11.600;2024-02-23T05:36:04;7.00;99.90
18882;DHT22;9573;50.948;11.600;2024-02-23T05:38:31;7.00;99.90
18882;DHT22;9573;50.948;11.600;2024-02-23T05:40:58;7.00;99.90
18882;DHT22;9573;50.948;11.600;2024-02-23T05:43:26;7.00;99.90
18882;DHT22;9573;50.948;11.600;2024-02-23T05:45:53;6.90;99.90
18882;DHT22;9573;50.948;11.600;2024-02-23T05:48:24;6.90;99.90
18882;DHT22;9573;50.948;11.600;2024-02-23T05:50:51;6.80;99.90
18882;DHT22;9573;50.948;11.600;2024-02-23T05:53:18;6.80;99.90
18882;DHT22;9573;50.948;11.600;2024-02-23T05:55:45;6.80;99.90
18882;DHT22;9573;50.948;11.600;2024-02-23T05:58:12;6.80;99.90
18882;DHT22;9573;50.948;11.600;2024-02-23T06:00:42;6.80;99.90
18882;DHT22;9573;50.948;11.600;2024-02-23T06:03:09;6.70;99.90
18882;DHT22;9573;50.948;11.600;2024-02-23T06:05:37;6.70;99.90
18882;DHT22;9573;50.948;11.600;2024-02-23T06:08:05;6.70;99.90
18882;DHT22;9573;50.948;11.600;2024-02-23T06:10:33;6.70;99.90
18882;DHT22;9573;50.948;11.600;2024-02-23T06:13:00;6.70;99.90
18882;DHT22;9573;50.948;11.600;2024-02-23T06:15:28;6.70;99.90
18882;DHT22;9573;50.948;11.600;2024-02-23T06:17:55;6.70;99.90
18882;DHT22;9573;50.948;11.600;2024-02-23T06:20:22;6.60;99.90
18882;DHT22;9573;50.948;11.600;2024-02-23T06:22:50;6.60;99.90
18882;DHT22;9573;50.948;11.600;2024-02-23T06:25:17;6.60;99.90
18882;DHT22;9573;50.948;11.600;2024-02-23T06:27:44;6.60;99.90
18882;DHT22;9573;50.948;11.600;2024-02-23T06:30:12;6.60;99.90
18882;DHT22;9573;50.948;11.600;2024-02-23T06:32:39;6.60;99.90
18882;DHT22;9573;50.948;11.600;2024-02-23T06:35:07;6.60;99.90
18882;DHT22;9573;50.948;11.600;2024-02-23T06:37:37;6.60;99.90
18882;DHT22;9573;50.948;11.600;2024-02-23T06:40:06;6.60;99.90
18882;DHT22;9573;50.948;11.600;2024-02-23T06:42:34;6.60;99.90
18882;DHT22;9573;50.948;11.600;2024-02-23T06:45:01;6.60;99.90
18882;DHT22;9573;50.948;11.600;2024-02-23T06:47:28;6.70;99.90
18882;DHT22;9573;50.948;11.600;2024-02-23T06:49:55;6.70;99.90
18882;DHT22;9573;50.948;11.600;2024-02-23T06:52:22;6.70;99.90
18882;DHT22;9573;50.948;11.600;2024-02-23T06:54:51;6.80;99.90
18882;DHT22;9573;50.948;11.600;2024-02-23T06:57:20;6.90;99.90
18882;DHT22;9573;50.948;11.600;2024-02-23T06:59:48;6.90;99.90
18882;DHT22;9573;50.948;11.600;2024-02-23T07:02:15;6.90;99.90
18882;DHT22;9573;50.948;11.600;2024-02-23T07:04:42;6.90;99.90
18882;DHT22;9573;50.948;11.600;2024-02-23T07:07:09;6.90;99.90
18882;DHT22;9573;50.948;11.600;2024-02-23T07:09:37;7.00;99.90
18882;DHT22;9573;50.948;11.600;2024-02-23T07:12:05;7.30;99.90
18882;DHT22;9573;50.948;11.600;2024-02-23T07:14:35;7.10;99.90
18882;DHT22;9573;50.948;11.600;2024-02-23T07:17:02;7.20;99.90
18882;DHT22;9573;50.948;11.600;2024-02-23T07:19:29;7.20;99.90
18882;DHT22;9573;50.948;11.600;2024-02-23T07:21:56;7.20;99.90
18882;DHT22;9573;50.948;11.600;2024-02-23T07:24:23;7.20;99.90
18882;DHT22;9573;50.948;11.600;2024-02-23T07:26:50;7.60;99.90
18882;DHT22;9573;50.948;11.600;2024-02-23T07:29:17;7.30;99.90
18882;DHT22;9573;50.948;11.600;2024-02-23T07:31:46;7.40;99.90
18882;DHT22;9573;50.948;11.600;2024-02-23T07:34:13;7.40;99.90
18882;DHT22;9573;50.948;11.600;2024-02-23T07:36:40;7.50;99.90
18882;DHT22;9573;50.948;11.600;2024-02-23T07:39:08;7.50;99.90
18882;DHT22;9573;50.948;11.600;2024-02-23T07:41:37;7.50;99.90
18882;DHT22;9573;50.948;11.600;2024-02-23T07:44:04;7.60;99.90
18882;DHT22;9573;50.948;11.600;2024-02-23T07:46:31;7.60;99.90
18882;DHT22;9573;50.948;11.600;2024-02-23T07:48:59;7.70;99.90
18882;DHT22;9573;50.948;11.600;2024-02-23T07:51:26;7.80;99.90
18882;DHT22;9573;50.948;11.600;2024-02-23T07:53:53;7.90;99.90
18882;DHT22;9573;50.948;11.600;2024-02-23T07:56:20;7.90;99.90
18882;DHT22;9573;50.948;11.600;2024-02-23T07:58:47;8.00;99.90
18882;DHT22;9573;50.948;11.600;2024-02-23T08:01:14;8.10;99.90
18882;DHT22;9573;50.948;11.600;2024-02-23T08:03:41;8.20;99.90
18882;DHT22;9573;50.948;11.600;2024-02-23T08:06:10;8.20;99.90
18882;DHT22;9573;50.948;11.600;2024-02-23T08:08:38;8.30;99.90
18882;DHT22;9573;50.948;11.600;2024-02-23T08:11:05;8.40;99.90
18882;DHT22;9573;50.948;11.600;2024-02-23T08:13:32;8.50;99.90
18882;DHT22;9573;50.948;11.600;2024-02-23T08:16:00;8.70;99.90
18882;DHT22;9573;50.948;11.600;2024-02-23T08:18:28;8.80;99.90
18882;DHT22;9573;50.948;11.600;2024-02-23T08:20:55;8.90;99.90
18882;DHT22;9573;50.948;11.600;2024-02-23T08:23:23;9.10;99.90
18882;DHT22;9573;50.948;11.600;2024-02-23T08:25:50;9.00;99.90
18882;DHT22;9573;50.948;11.600;2024-02-23T08:28:19;9.20;99.90
18882;DHT22;9573;50.948;11.600;2024-02-23T08:30:46;9.20;99.90
18882;DHT22;9573;50.948;11.600;2024-02-23T08:33:14;9.50;99.90
18882;DHT22;9573;50.948;11.600;2024-02-23T08:35:41;9.50;99.90
18882;DHT22;9573;50.948;11.600;2024-02-23T08:38:08;9.60;99.90
18882;DHT22;9573;50.948;11.600;2024-02-23T08:40:36;9.80;99.90
18882;DHT22;9573;50.948;11.600;2024-02-23T08:43:05;10.00;99.90
18882;DHT22;9573;50.948;11.600;2024-02-23T08:45:35;10.20;99.90
18882;DHT22;9573;50.948;11.600;2024-02-23T08:48:02;10.30;99.90
18882;DHT22;9573;50.948;11.600;2024-02-23T08:50:29;10.30;99.90
18882;DHT22;9573;50.948;11.600;2024-02-23T08:52:57;10.20;99.90
18882;DHT22;9573;50.948;11.600;2024-02-23T08:55:24;10.30;99.90
18882;DHT22;9573;50.948;11.600;2024-02-23T08:57:52;10.30;99.90
18882;DHT22;9573;50.948;11.600;2024-02-23T09:00:19;10.30;99.90
18882;DHT22;9573;50.948;11.600;2024-02-23T09:02:46;10.40;99.90
18882;DHT22;9573;50.948;11.600;2024-02-23T09:05:22;10.80;99.90
18882;DHT22;9573;50.948;11.600;2024-02-23T09:07:50;10.50;99.90
18882;DHT22;9573;50.948;11.600;2024-02-23T09:10:17;10.40;99.90
18882;DHT22;9573;50.948;11.600;2024-02-23T09:12:44;10.30;99.90
18882;DHT22;9573;50.948;11.600;2024-02-23T09:15:17;10.30;99.90
18882;DHT22;9573;50.948;11.600;2024-02-23T09:17:46;10.50;99.90
18882;DHT22;9573;50.948;11.600;2024-02-23T09:20:13;10.50;99.90
18882;DHT22;9573;50.948;11.600;2024-02-23T09:22:40;10.60;99.90
18882;DHT22;9573;50.948;11.600;2024-02-23T09:25:08;10.60;99.90
18882;DHT22;9573;50.948;11.600;2024-02-23T09:27:35;10.40;99.90
18882;DHT22;9573;50.948;11.600;2024-02-23T09:30:09;10.50;99.90
18882;DHT22;9573;50.948;11.600;2024-02-23T09:32:39;10.60;99.90
18882;DHT22;9573;50.948;11.600;2024-02-23T09:35:07;11.50;99.90
18882;DHT22;9573;50.948;11.600;2024-02-23T09:37:34;12.90;99.90
18882;DHT22;9573;50.948;11.600;2024-02-23T09:40:02;10.80;99.90
18882;DHT22;9573;50.948;11.600;2024-02-23T09:42:29;10.80;99.90
18882;DHT22;9573;50.948;11.600;2024-02-23T09:44:59;10.80;99.90
18882;DHT22;9573;50.948;11.600;2024-02-23T09:47:27;10.70;99.90
18882;DHT22;9573;50.948;11.600;2024-02-23T09:49:56;10.70;99.90
18882;DHT22;9573;50.948;11.600;2024-02-23T09:52:23;10.50;99.90
18882;DHT22;9573;50.948;11.600;2024-02-23T09:54:50;10.50;99.90
18882;DHT22;9573;50.948;11.600;2024-02-23T09:57:18;10.60;99.90
18882;DHT22;9573;50.948;11.600;2024-02-23T09:59:47;10.60;99.90
18882;DHT22;9573;50.948;11.600;2024-02-23T10:02:15;10.50;99.90
18882;DHT22;9573;50.948;11.600;2024-02-23T10:04:43;10.90;99.90
18882;DHT22;9573;50.948;11.600;2024-02-23T10:07:15;10.90;99.90
18882;DHT22;9573;50.948;11.600;2024-02-23T10:09:42;10.90;99.90
18882;DHT22;9573;50.948;11.600;2024-02-23T10:12:10;11.00;99.90
18882;DHT22;9573;50.948;11.600;2024-02-23T10:14:37;11.00;99.90
18882;DHT22;9573;50.948;11.600;2024-02-23T10:17:06;10.90;99.90
18882;DHT22;9573;50.948;11.600;2024-02-23T10:19:34;10.90;99.90
18882;DHT22;9573;50.948;11.600;2024-02-23T10:22:01;10.70;99.90
18882;DHT22;9573;50.948;11.600;2024-02-23T10:24:29;10.70;99.90
18882;DHT22;9573;50.948;11.600;2024-02-23T10:26:56;10.80;99.90
18882;DHT22;9573;50.948;11.600;2024-02-23T10:29:23;11.10;99.90
18882;DHT22;9573;50.948;11.600;2024-02-23T10:31:57;11.00;99.90
18882;DHT22;9573;50.948;11.600;2024-02-23T10:34:25;10.60;99.90
18882;DHT22;9573;50.948;11.600;2024-02-23T10:36:54;10.50;99.90
18882;DHT22;9573;50.948;11.600;2024-02-23T10:39:24;10.50;99.90
18882;DHT22;9573;50.948;11.600;2024-02-23T10:41:56;10.40;99.90
18882;DHT22;9573;50.948;11.600;2024-02-23T10:44:27;10.30;99.90
18882;DHT22;9573;50.948;11.600;2024-02-23T10:46:55;10.30;99.90
18882;DHT22;9573;50.948;11.600;2024-02-23T10:49:24;10.40;99.90
18882;DHT22;9573;50.948;11.600;2024-02-23T10:51:52;10.50;99.90
18882;DHT22;9573;50.948;11.600;2024-02-23T10:54:20;10.70;99.90
18882;DHT22;9573;50.948;11.600;2024-02-23T10:56:49;10.80;99.90
18882;DHT22;9573;50.948;11.600;2024-02-23T10:59:19;10.80;99.90
18882;DHT22;9573;50.948;11.600;2024-02-23T11:01:49;10.90;99.90
18882;DHT22;9573;50.948;11.600;2024-02-23T11:04:17;11.00;99.90
18882;DHT22;9573;50.948;11.600;2024-02-23T11:06:49;10.90;99.90
18882;DHT22;9573;50.948;11.600;2024-02-23T11:09:17;10.80;99.90
18882;DHT22;9573;50.948;11.600;2024-02-23T11:11:52;10.80;99.90
18882;DHT22;9573;50.948;11.600;2024-02-23T11:14:31;10.70;99.90
18882;DHT22;9573;50.948;11.600;2024-02-23T11:16:58;10.70;99.90
18882;DHT22;9573;50.948;11.600;2024-02-23T11:19:33;10.70;99.90
18882;DHT22;9573;50.948;11.600;2024-02-23T11:22:01;10.70;99.90
18882;DHT22;9573;50.948;11.600;2024-02-23T11:24:29;10.70;99.90
18882;DHT22;9573;50.948;11.600;2024-02-23T11:26:57;10.70;99.90
18882;DHT22;9573;50.948;11.600;2024-02-23T11:29:26;10.80;99.90
18882;DHT22;9573;50.948;11.600;2024-02-23T11:31:56;10.60;99.90
18882;DHT22;9573;50.948;11.600;2024-02-23T11:34:27;13.70;99.90
18882;DHT22;9573;50.948;11.600;2024-02-23T11:36:54;11.00;99.90
18882;DHT22;9573;50.948;11.600;2024-02-23T11:39:24;11.30;99.90
18882;DHT22;9573;50.948;11.600;2024-02-23T11:41:53;11.30;99.90
18882;DHT22;9573;50.948;11.600;2024-02-23T11:44:20;11.30;99.90
18882;DHT22;9573;50.948;11.600;2024-02-23T11:46:47;11.10;99.90
18882;DHT22;9573;50.948;11.600;2024-02-23T11:49:15;11.00;99.90
18882;DHT22;9573;50.948;11.600;2024-02-23T11:51:42;10.80;99.90
18882;DHT22;9573;50.948;11.600;2024-02-23T11:54:10;10.80;99.90
18882;DHT22;9573;50.948;11.600;2024-02-23T11:56:37;10.80;99.90
18882;DHT22;9573;50.948;11.600;2024-02-23T11:59:05;10.70;99.90
18882;DHT22;9573;50.948;11.600;2024-02-23T12:01:32;11.00;99.90
18882;DHT22;9573;50.948;11.600;2024-02-23T12:03:59;11.30;99.90
18882;DHT22;9573;50.948;11.600;2024-02-23T12:06:29;11.20;99.90
18882;DHT22;9573;50.948;11.600;2024-02-23T12:08:58;11.00;99.90
18882;DHT22;9573;50.948;11.600;2024-02-23T12:11:26;10.90;99.90
18882;DHT22;9573;50.948;11.600;2024-02-23T12:13:53;10.80;99.90
18882;DHT22;9573;50.948;11.600;2024-02-23T12:16:21;10.80;99.90
18882;DHT22;9573;50.948;11.600;2024-02-23T12:18:53;10.90;99.90
18882;DHT22;9573;50.948;11.600;2024-02-23T12:21:21;11.00;99.90
18882;DHT22;9573;50.948;11.600;2024-02-23T12:23:51;10.90;99.90
18882;DHT22;9573;50.948;11.600;2024-02-23T12:26:18;10.80;99.90
18882;DHT22;9573;50.948;11.600;2024-02-23T12:28:46;10.80;99.90
18882;DHT22;9573;50.948;11.600;2024-02-23T12:31:13;10.90;99.90
18882;DHT22;9573;50.948;11.600;2024-02-23T12:33:41;10.80;99.90
18882;DHT22;9573;50.948;11.600;2024-02-23T12:36:13;11.20;99.90
18882;DHT22;9573;50.948;11.600;2024-02-23T12:38:41;11.00;99.90
18882;DHT22;9573;50.948;11.600;2024-02-23T12:41:10;10.90;99.90
18882;DHT22;9573;50.948;11.600;2024-02-23T12:43:38;10.70;99.90
18882;DHT22;9573;50.948;11.600;2024-02-23T12:46:05;10.60;99.90
18882;DHT22;9573;50.948;11.600;2024-02-23T12:48:34;10.40;99.90
18882;DHT22;9573;50.948;11.600;2024-02-23T14:52:37;9.90;99.90
18882;DHT22;9573;50.948;11.600;2024-02-23T14:55:07;9.90;99.90
18882;DHT22;9573;50.948;11.600;2024-02-23T14:57:37;9.80;99.90
18882;DHT22;9573;50.948;11.600;2024-02-23T15:00:05;10.70;99.90
18882;DHT22;9573;50.948;11.600;2024-02-23T15:02:34;9.50;99.90
18882;DHT22;9573;50.948;11.600;2024-02-23T15:05:07;9.50;99.90
18882;DHT22;9573;50.948;11.600;2024-02-23T15:07:36;9.50;99.90
18882;DHT22;9573;50.948;11.600;2024-02-23T15:10:05;9.40;99.90
18882;DHT22;9573;50.948;11.600;2024-02-23T15:12:34;9.50;99.90
18882;DHT22;9573;50.948;11.600;2024-02-23T15:15:04;9.30;99.90
18882;DHT22;9573;50.948;11.600;2024-02-23T15:17:32;9.30;99.90
18882;DHT22;9573;50.948;11.600;2024-02-23T15:19:59;9.30;99.90
18882;DHT22;9573;50.948;11.600;2024-02-23T15:22:26;9.40;99.90
18882;DHT22;9573;50.948;11.600;2024-02-23T15:24:56;9.30;99.90
18882;DHT22;9573;50.948;11.600;2024-02-23T15:27:25;9.20;99.90
18882;DHT22;9573;50.948;11.600;2024-02-23T15:29:52;9.20;99.90
18882;DHT22;9573;50.948;11.600;2024-02-23T15:32:19;8.90;99.90
18882;DHT22;9573;50.948;11.600;2024-02-23T15:34:47;8.80;99.90
18882;DHT22;9573;50.948;11.600;2024-02-23T15:37:14;8.80;99.90
18882;DHT22;9573;50.948;11.600;2024-02-23T15:39:41;8.70;99.90
18882;DHT22;9573;50.948;11.600;2024-02-23T15:42:10;8.70;99.90
18882;DHT22;9573;50.948;11.600;2024-02-23T15:44:38;8.60;99.90
18882;DHT22;9573;50.948;11.600;2024-02-23T15:47:06;8.60;99.90
18882;DHT22;9573;50.948;11.600;2024-02-23T15:49:33;8.50;99.90
18882;DHT22;9573;50.948;11.600;2024-02-23T15:52:01;8.50;99.90
18882;DHT22;9573;50.948;11.600;2024-02-23T15:54:28;8.50;99.90
18882;DHT22;9573;50.948;11.600;2024-02-23T15:56:55;8.40;99.90
18882;DHT22;9573;50.948;11.600;2024-02-23T15:59:24;8.40;99.90
18882;DHT22;9573;50.948;11.600;2024-02-23T16:01:51;8.30;99.90
18882;DHT22;9573;50.948;11.600;2024-02-23T16:04:20;8.30;99.90
18882;DHT22;9573;50.948;11.600;2024-02-23T16:06:47;8.20;99.90
18882;DHT22;9573;50.948;11.600;2024-02-23T16:09:14;8.10;99.90
18882;DHT22;9573;50.948;11.600;2024-02-23T16:11:44;8.20;99.90
18882;DHT22;9573;50.948;11.600;2024-02-23T16:14:12;8.10;99.90
18882;DHT22;9573;50.948;11.600;2024-02-23T16:16:41;8.00;99.90
18882;DHT22;9573;50.948;11.600;2024-02-23T16:19:08;8.00;99.90
18882;DHT22;9573;50.948;11.600;2024-02-23T16:21:36;7.90;99.90
18882;DHT22;9573;50.948;11.600;2024-02-23T16:24:04;7.90;99.90
18882;DHT22;9573;50.948;11.600;2024-02-23T16:26:32;7.80;99.90
18882;DHT22;9573;50.948;11.600;2024-02-23T16:29:02;7.90;99.90
18882;DHT22;9573;50.948;11.600;2024-02-23T16:31:30;7.70;99.90
18882;DHT22;9573;50.948;11.600;2024-02-23T16:33:59;7.60;99.90
18882;DHT22;9573;50.948;11.600;2024-02-23T16:36:26;7.60;99.90
18882;DHT22;9573;50.948;11.600;2024-02-23T16:38:53;7.50;99.90
18882;DHT22;9573;50.948;11.600;2024-02-23T16:41:20;7.40;99.90
18882;DHT22;9573;50.948;11.600;2024-02-23T16:43:47;7.00;99.90
18882;DHT22;9573;50.948;11.600;2024-02-23T16:46:14;6.90;99.90
18882;DHT22;9573;50.948;11.600;2024-02-23T16:48:42;7.50;99.90
18882;DHT22;9573;50.948;11.600;2024-02-23T16:51:10;7.40;99.90
18882;DHT22;9573;50.948;11.600;2024-02-23T16:53:37;7.10;99.90
18882;DHT22;9573;50.948;11.600;2024-02-23T16:56:05;7.10;99.90
18882;DHT22;9573;50.948;11.600;2024-02-23T16:58:33;7.00;99.90
18882;DHT22;9573;50.948;11.600;2024-02-23T17:01:03;7.00;99.90
18882;DHT22;9573;50.948;11.600;2024-02-23T17:03:31;6.90;99.90
18882;DHT22;9573;50.948;11.600;2024-02-23T17:05:59;6.90;99.90
18882;DHT22;9573;50.948;11.600;2024-02-23T17:08:31;6.80;99.90
18882;DHT22;9573;50.948;11.600;2024-02-23T17:10:58;6.80;99.90
18882;DHT22;9573;50.948;11.600;2024-02-23T17:13:25;6.80;99.90
18882;DHT22;9573;50.948;11.600;2024-02-23T17:15:53;6.70;99.90
18882;DHT22;9573;50.948;11.600;2024-02-23T17:18:20;6.70;99.90
18882;DHT22;9573;50.948;11.600;2024-02-23T17:20:48;6.80;99.90
18882;DHT22;9573;50.948;11.600;2024-02-23T17:23:15;6.60;99.90
18882;DHT22;9573;50.948;11.600;2024-02-23T17:25:44;6.60;99.90
18882;DHT22;9573;50.948;11.600;2024-02-23T17:28:11;6.60;99.90
18882;DHT22;9573;50.948;11.600;2024-02-23T17:30:39;6.50;99.90
18882;DHT22;9573;50.948;11.600;2024-02-23T17:33:06;8.90;99.90
18882;DHT22;9573;50.948;11.600;2024-02-23T17:35:34;6.50;99.90
18882;DHT22;9573;50.948;11.600;2024-02-23T17:38:01;4.50;99.90
18882;DHT22;9573;50.948;11.600;2024-02-23T17:40:28;6.40;99.90
18882;DHT22;9573;50.948;11.600;2024-02-23T17:42:57;6.40;99.90
18882;DHT22;9573;50.948;11.600;2024-02-23T17:45:24;6.30;99.90